sensor_id;sensor_type;location;lat;lon;timestamp;pressure;altitude;pressure_sealevel;temperature;humidity
17311;BME280;8773;43.300;0.394;2022-10-03T00:03:55;100319.09;;;16.49;100.00
17311;BME280;8773;43.300;0.394;2022-10-03T00:06:33;100309.09;;;16.36;100.00
17311;BME280;8773;43.300;0.394;2022-10-03T00:09:20;100301.75;;;16.23;100.00
17311;BME280;8773;43.300;0.394;2022-10-03T00:12:08;100294.81;;;16.26;100.00
17311;BME280;8773;43.300;0.394;2022-10-03T00:14:47;100292.16;;;16.25;100.00
17311;BME280;8773;43.300;0.394;2022-10-03T00:17:24;100295.47;;;16.18;100.00
17311;BME280;8773;43.300;0.394;2022-10-03T00:20:00;100288.16;;;16.09;100.00
17311;BME280;8773;43.300;0.394;2022-10-03T00:22:37;100299.63;;;16.11;100.00
17311;BME280;8773;43.300;0.394;2022-10-03T00:25:23;100293.56;;;16.13;100.00
17311;BME280;8773;43.300;0.394;2022-10-03T00:28:09;100295.47;;;16.18;100.00
17311;BME280;8773;43.300;0.394;2022-10-03T00:30:48;100300.00;;;16.23;100.00
17311;BME280;8773;43.300;0.394;2022-10-03T00:33:28;100304.41;;;16.24;100.00
17311;BME280;8773;43.300;0.394;2022-10-03T00:36:03;100291.28;;;16.26;100.00
17311;BME280;8773;43.300;0.394;2022-10-03T00:39:01;100302.50;;;16.19;100.00
17311;BME280;8773;43.300;0.394;2022-10-03T00:41:54;100303.38;;;16.19;100.00
17311;BME280;8773;43.300;0.394;2022-10-03T00:48:08;100310.31;;;16.15;100.00
17311;BME280;8773;43.300;0.394;2022-10-03T00:50:55;100303.16;;;16.11;100.00
17311;BME280;8773;43.300;0.394;2022-10-03T00:53:38;100308.13;;;16.01;100.00
17311;BME280;8773;43.300;0.394;2022-10-03T00:56:26;100302.91;;;16.02;100.00
17311;BME280;8773;43.300;0.394;2022-10-03T00:59:15;100303.66;;;15.98;100.00
17311;BME280;8773;43.300;0.394;2022-10-03T01:01:48;100310.63;;;15.96;100.00
17311;BME280;8773;43.300;0.394;2022-10-03T01:04:38;100306.91;;;15.88;100.00
17311;BME280;8773;43.300;0.394;2022-10-03T01:07:23;100302.38;;;15.84;100.00
17311;BME280;8773;43.300;0.394;2022-10-03T01:10:02;100308.66;;;15.89;100.00
17311;BME280;8773;43.300;0.394;2022-10-03T01:13:01;100307.91;;;15.93;100.00
17311;BME280;8773;43.300;0.394;2022-10-03T01:15:44;100309.69;;;15.94;100.00
17311;BME280;8773;43.300;0.394;2022-10-03T01:18:25;100307.91;;;15.93;100.00
17311;BME280;8773;43.300;0.394;2022-10-03T01:21:02;100314.00;;;15.92;100.00
17311;BME280;8773;43.300;0.394;2022-10-03T01:26:55;100312.75;;;15.78;100.00
17311;BME280;8773;43.300;0.394;2022-10-03T01:29:41;100313.75;;;15.83;100.00
17311;BME280;8773;43.300;0.394;2022-10-03T01:32:34;100308.31;;;15.77;100.00
17311;BME280;8773;43.300;0.394;2022-10-03T01:35:16;100297.03;;;15.81;100.00
17311;BME280;8773;43.300;0.394;2022-10-03T01:37:55;100291.69;;;15.78;100.00
17311;BME280;8773;43.300;0.394;2022-10-03T01:40:28;100297.97;;;15.83;100.00
17311;BME280;8773;43.300;0.394;2022-10-03T01:43:07;100300.41;;;15.77;100.00
17311;BME280;8773;43.300;0.394;2022-10-03T01:45:47;100298.44;;;15.69;100.00
17311;BME280;8773;43.300;0.394;2022-10-03T01:48:22;100291.22;;;15.61;100.00
17311;BME280;8773;43.300;0.394;2022-10-03T01:51:00;100286.00;;;15.62;100.00
17311;BME280;8773;43.300;0.394;2022-10-03T01:53:38;100283.41;;;15.64;100.00
17311;BME280;8773;43.300;0.394;2022-10-03T01:56:13;100285.16;;;15.63;100.00
17311;BME280;8773;43.300;0.394;2022-10-03T01:58:51;100297.44;;;15.64;100.00
17311;BME280;8773;43.300;0.394;2022-10-03T02:01:29;100288.56;;;15.61;100.00
17311;BME280;8773;43.300;0.394;2022-10-03T02:04:05;100283.97;;;15.23;100.00
17311;BME280;8773;43.300;0.394;2022-10-03T02:06:44;100284.75;;;15.21;100.00
17311;BME280;8773;43.300;0.394;2022-10-03T02:09:26;100283.97;;;15.23;100.00
17311;BME280;8773;43.300;0.394;2022-10-03T02:12:00;100281.13;;;15.17;100.00
17311;BME280;8773;43.300;0.394;2022-10-03T02:14:39;100278.16;;;14.79;100.00
17311;BME280;8773;43.300;0.394;2022-10-03T02:17:19;100270.09;;;14.73;100.00
17311;BME280;8773;43.300;0.394;2022-10-03T02:19:56;100265.22;;;14.85;100.00
17311;BME280;8773;43.300;0.394;2022-10-03T02:22:30;100265.63;;;14.98;100.00
17311;BME280;8773;43.300;0.394;2022-10-03T02:25:20;100272.00;;;15.06;100.00
17311;BME280;8773;43.300;0.394;2022-10-03T02:28:23;100264.84;;;15.02;100.00
17311;BME280;8773;43.300;0.394;2022-10-03T02:31:29;100269.09;;;14.70;100.00
17311;BME280;8773;43.300;0.394;2022-10-03T02:34:16;100263.34;;;14.54;100.00
17311;BME280;8773;43.300;0.394;2022-10-03T02:37:14;100262.06;;;14.69;100.00
17311;BME280;8773;43.300;0.394;2022-10-03T02:46:01;100268.84;;;14.62;100.00
17311;BME280;8773;43.300;0.394;2022-10-03T02:51:46;100270.03;;;14.99;100.00
17311;BME280;8773;43.300;0.394;2022-10-03T02:54:38;100277.91;;;14.99;100.00
17311;BME280;8773;43.300;0.394;2022-10-03T03:00:18;100268.34;;;15.01;100.00
17311;BME280;8773;43.300;0.394;2022-10-03T03:03:05;100266.03;;;15.12;100.00
17311;BME280;8773;43.300;0.394;2022-10-03T03:09:38;100272.47;;;15.20;100.00
17311;BME280;8773;43.300;0.394;2022-10-03T03:12:43;100267.13;;;15.18;100.00
17311;BME280;8773;43.300;0.394;2022-10-03T03:18:23;100261.97;;;15.20;100.00
17311;BME280;8773;43.300;0.394;2022-10-03T03:21:01;100255.72;;;15.18;100.00
17311;BME280;8773;43.300;0.394;2022-10-03T03:23:41;100260.38;;;15.25;100.00
17311;BME280;8773;43.300;0.394;2022-10-03T03:26:39;100254.25;;;15.26;100.00
17311;BME280;8773;43.300;0.394;2022-10-03T03:29:22;100251.94;;;15.37;100.00
17311;BME280;8773;43.300;0.394;2022-10-03T03:32:02;100256.72;;;15.21;100.00
17311;BME280;8773;43.300;0.394;2022-10-03T03:34:37;100255.09;;;15.25;100.00
17311;BME280;8773;43.300;0.394;2022-10-03T03:37:11;100257.63;;;15.22;100.00
17311;BME280;8773;43.300;0.394;2022-10-03T03:40:03;100256.53;;;15.15;100.00
17311;BME280;8773;43.300;0.394;2022-10-03T03:42:48;100247.84;;;15.18;100.00
17311;BME280;8773;43.300;0.394;2022-10-03T03:45:33;100254.84;;;15.17;100.00
17311;BME280;8773;43.300;0.394;2022-10-03T03:48:18;100259.25;;;15.18;100.00
17311;BME280;8773;43.300;0.394;2022-10-03T03:50:59;100247.00;;;15.19;100.00
17311;BME280;8773;43.300;0.394;2022-10-03T03:56:50;100244.00;;;14.79;100.00
17311;BME280;8773;43.300;0.394;2022-10-03T03:59:34;100244.56;;;14.69;100.00
17311;BME280;8773;43.300;0.394;2022-10-03T04:02:18;100241.00;;;14.67;100.00
17311;BME280;8773;43.300;0.394;2022-10-03T04:05:10;100234.31;;;14.77;100.00
17311;BME280;8773;43.300;0.394;2022-10-03T04:07:51;100239.28;;;14.95;100.00
17311;BME280;8773;43.300;0.394;2022-10-03T04:10:32;100233.44;;;15.05;100.00
17311;BME280;8773;43.300;0.394;2022-10-03T04:13:22;100232.81;;;15.14;100.00
17311;BME280;8773;43.300;0.394;2022-10-03T04:16:08;100229.38;;;15.15;100.00
17311;BME280;8773;43.300;0.394;2022-10-03T04:18:58;100232.81;;;15.14;100.00
17311;BME280;8773;43.300;0.394;2022-10-03T04:21:58;100221.81;;;14.70;100.00
17311;BME280;8773;43.300;0.394;2022-10-03T04:25:05;100204.53;;;14.76;100.00
17311;BME280;8773;43.300;0.394;2022-10-03T04:27:58;100207.41;;;14.84;100.00
17311;BME280;8773;43.300;0.394;2022-10-03T04:30:37;100208.56;;;14.94;100.00
17311;BME280;8773;43.300;0.394;2022-10-03T04:33:19;100212.16;;;14.96;100.00
17311;BME280;8773;43.300;0.394;2022-10-03T04:36:14;100207.63;;;14.92;100.00
17311;BME280;8773;43.300;0.394;2022-10-03T04:38:52;100206.97;;;14.99;100.00
17311;BME280;8773;43.300;0.394;2022-10-03T04:41:27;100200.31;;;14.81;100.00
17311;BME280;8773;43.300;0.394;2022-10-03T04:44:05;100193.63;;;14.62;100.00
17311;BME280;8773;43.300;0.394;2022-10-03T04:46:42;100192.34;;;14.78;100.00
17311;BME280;8773;43.300;0.394;2022-10-03T04:49:21;100192.81;;;14.94;100.00
17311;BME280;8773;43.300;0.394;2022-10-03T04:51:57;100191.28;;;15.02;100.00
17311;BME280;8773;43.300;0.394;2022-10-03T04:54:38;100189.16;;;15.17;100.00
17311;BME280;8773;43.300;0.394;2022-10-03T04:57:18;100184.63;;;15.13;100.00
17311;BME280;8773;43.300;0.394;2022-10-03T04:59:52;100184.72;;;15.16;100.00
17311;BME280;8773;43.300;0.394;2022-10-03T05:02:38;100182.28;;;15.21;100.00
17311;BME280;8773;43.300;0.394;2022-10-03T05:05:38;100174.53;;;15.27;100.00
17311;BME280;8773;43.300;0.394;2022-10-03T05:08:16;100167.47;;;15.24;100.00
17311;BME280;8773;43.300;0.394;2022-10-03T05:10:56;100178.25;;;15.34;100.00
17311;BME280;8773;43.300;0.394;2022-10-03T05:13:41;100184.94;;;15.54;100.00
17311;BME280;8773;43.300;0.394;2022-10-03T05:16:18;100181.69;;;15.63;100.00
17311;BME280;8773;43.300;0.394;2022-10-03T05:18:54;100182.16;;;15.48;100.00
17311;BME280;8773;43.300;0.394;2022-10-03T05:21:32;100178.31;;;15.35;100.00
17311;BME280;8773;43.300;0.394;2022-10-03T05:24:13;100176.13;;;15.20;100.00
17311;BME280;8773;43.300;0.394;2022-10-03T05:26:48;100174.28;;;15.19;100.00
17311;BME280;8773;43.300;0.394;2022-10-03T05:29:26;100175.69;;;15.06;100.00
17311;BME280;8773;43.300;0.394;2022-10-03T05:32:16;100178.25;;;15.34;100.00
17311;BME280;8773;43.300;0.394;2022-10-03T05:35:00;100176.63;;;15.37;100.00
17311;BME280;8773;43.300;0.394;2022-10-03T05:38:08;100180.47;;;15.50;100.00
17311;BME280;8773;43.300;0.394;2022-10-03T05:40:40;100165.84;;;15.60;100.00
17311;BME280;8773;43.300;0.394;2022-10-03T05:43:27;100166.88;;;15.65;100.00
17311;BME280;8773;43.300;0.394;2022-10-03T05:46:07;100174.97;;;15.74;100.00
17311;BME280;8773;43.300;0.394;2022-10-03T05:48:46;100173.28;;;15.76;100.00
17311;BME280;8773;43.300;0.394;2022-10-03T05:51:43;100176.00;;;15.79;100.00
17311;BME280;8773;43.300;0.394;2022-10-03T05:57:36;100171.47;;;15.42;100.00
17311;BME280;8773;43.300;0.394;2022-10-03T06:00:14;100169.63;;;15.38;100.00
17311;BME280;8773;43.300;0.394;2022-10-03T06:06:06;100172.00;;;15.62;100.00
17311;BME280;8773;43.300;0.394;2022-10-03T06:08:51;100173.09;;;15.68;100.00
17311;BME280;8773;43.300;0.394;2022-10-03T06:14:35;100183.25;;;15.56;100.00
17311;BME280;8773;43.300;0.394;2022-10-03T06:26:48;100170.16;;;15.58;100.00
17311;BME280;8773;43.300;0.394;2022-10-03T06:29:45;100166.13;;;15.70;100.00
17311;BME280;8773;43.300;0.394;2022-10-03T06:45:00;100188.22;;;15.45;100.00
17311;BME280;8773;43.300;0.394;2022-10-03T06:47:44;100187.97;;;15.36;100.00
17311;BME280;8773;43.300;0.394;2022-10-03T06:50:37;100195.13;;;15.73;100.00
17311;BME280;8773;43.300;0.394;2022-10-03T06:53:27;100199.44;;;16.03;100.00
17311;BME280;8773;43.300;0.394;2022-10-03T06:56:34;100205.13;;;16.19;100.00
17311;BME280;8773;43.300;0.394;2022-10-03T06:59:41;100206.81;;;16.17;100.00
17311;BME280;8773;43.300;0.394;2022-10-03T07:19:33;100198.69;;;16.42;100.00
17311;BME280;8773;43.300;0.394;2022-10-03T07:22:40;100201.13;;;16.71;100.00
17311;BME280;8773;43.300;0.394;2022-10-03T07:25:53;100200.38;;;16.76;100.00
17311;BME280;8773;43.300;0.394;2022-10-03T07:28:58;100213.53;;;16.75;100.00
17311;BME280;8773;43.300;0.394;2022-10-03T07:31:41;100207.03;;;16.61;100.00
17311;BME280;8773;43.300;0.394;2022-10-03T07:41:03;100231.28;;;16.47;100.00
17311;BME280;8773;43.300;0.394;2022-10-03T07:43:52;100219.84;;;16.47;100.00
17311;BME280;8773;43.300;0.394;2022-10-03T07:49:57;100212.06;;;16.17;100.00
17311;BME280;8773;43.300;0.394;2022-10-03T07:52:50;100220.50;;;16.73;100.00
17311;BME280;8773;43.300;0.394;2022-10-03T07:55:33;100220.56;;;17.14;100.00
17311;BME280;8773;43.300;0.394;2022-10-03T08:01:09;100232.09;;;17.61;100.00
17311;BME280;8773;43.300;0.394;2022-10-03T08:04:06;100226.38;;;17.82;100.00
17311;BME280;8773;43.300;0.394;2022-10-03T08:06:47;100231.19;;;18.03;100.00
17311;BME280;8773;43.300;0.394;2022-10-03T08:09:50;100230.63;;;18.21;100.00
17311;BME280;8773;43.300;0.394;2022-10-03T08:15:46;100228.53;;;18.03;100.00
17311;BME280;8773;43.300;0.394;2022-10-03T08:21:19;100226.50;;;17.44;100.00
17311;BME280;8773;43.300;0.394;2022-10-03T08:24:18;100228.56;;;17.61;100.00
17311;BME280;8773;43.300;0.394;2022-10-03T08:27:06;100232.97;;;18.04;100.00
17311;BME280;8773;43.300;0.394;2022-10-03T08:30:18;100237.25;;;17.55;100.00
17311;BME280;8773;43.300;0.394;2022-10-03T08:39:14;100234.34;;;17.85;100.00
17311;BME280;8773;43.300;0.394;2022-10-03T08:42:14;100225.81;;;17.99;100.00
17311;BME280;8773;43.300;0.394;2022-10-03T08:45:10;100241.34;;;18.30;100.00
17311;BME280;8773;43.300;0.394;2022-10-03T08:51:17;100248.34;;;18.27;100.00
17311;BME280;8773;43.300;0.394;2022-10-03T08:54:08;100245.22;;;18.51;100.00
17311;BME280;8773;43.300;0.394;2022-10-03T08:56:54;100249.09;;;18.73;100.00
17311;BME280;8773;43.300;0.394;2022-10-03T08:59:54;100241.97;;;18.67;100.00
17311;BME280;8773;43.300;0.394;2022-10-03T09:03:06;100238.19;;;19.08;100.00
17311;BME280;8773;43.300;0.394;2022-10-03T09:06:44;100244.09;;;18.90;100.00
17311;BME280;8773;43.300;0.394;2022-10-03T09:10:04;100239.59;;;19.48;100.00
17311;BME280;8773;43.300;0.394;2022-10-03T09:13:07;100237.19;;;19.01;100.00
17311;BME280;8773;43.300;0.394;2022-10-03T09:18:54;100233.34;;;19.40;100.00
17311;BME280;8773;43.300;0.394;2022-10-03T09:30:19;100226.88;;;19.87;100.00
17311;BME280;8773;43.300;0.394;2022-10-03T09:36:06;100222.13;;;20.42;100.00
17311;BME280;8773;43.300;0.394;2022-10-03T09:39:03;100222.25;;;20.63;100.00
17311;BME280;8773;43.300;0.394;2022-10-03T09:44:49;100215.38;;;20.90;100.00
17311;BME280;8773;43.300;0.394;2022-10-03T09:51:27;100208.16;;;20.64;100.00
17311;BME280;8773;43.300;0.394;2022-10-03T09:54:21;100203.94;;;20.94;100.00
17311;BME280;8773;43.300;0.394;2022-10-03T09:57:26;100202.31;;;21.21;100.00
17311;BME280;8773;43.300;0.394;2022-10-03T10:00:16;100207.66;;;21.24;100.00
17311;BME280;8773;43.300;0.394;2022-10-03T10:03:05;100198.00;;;21.40;100.00
17311;BME280;8773;43.300;0.394;2022-10-03T10:08:46;100190.22;;;21.97;100.00
17311;BME280;8773;43.300;0.394;2022-10-03T10:11:35;100196.41;;;21.92;100.00
17311;BME280;8773;43.300;0.394;2022-10-03T10:14:39;100183.03;;;21.65;100.00
17311;BME280;8773;43.300;0.394;2022-10-03T10:21:02;100181.38;;;22.10;100.00
17311;BME280;8773;43.300;0.394;2022-10-03T10:23:45;100178.59;;;21.61;100.00
17311;BME280;8773;43.300;0.394;2022-10-03T10:26:58;100172.44;;;21.85;100.00
17311;BME280;8773;43.300;0.394;2022-10-03T10:30:02;100172.50;;;21.97;100.00
17311;BME280;8773;43.300;0.394;2022-10-03T10:33:18;100165.34;;;21.81;100.00
17311;BME280;8773;43.300;0.394;2022-10-03T10:39:46;100154.78;;;22.36;100.00
17311;BME280;8773;43.300;0.394;2022-10-03T10:42:51;100149.47;;;22.61;100.00
17311;BME280;8773;43.300;0.394;2022-10-03T10:45:41;100149.47;;;22.39;100.00
17311;BME280;8773;43.300;0.394;2022-10-03T10:48:56;100149.47;;;22.33;100.00
17311;BME280;8773;43.300;0.394;2022-10-03T10:58:16;100135.28;;;22.62;100.00
17311;BME280;8773;43.300;0.394;2022-10-03T11:01:20;100135.25;;;22.86;100.00
17311;BME280;8773;43.300;0.394;2022-10-03T11:07:34;100124.66;;;22.57;100.00
17311;BME280;8773;43.300;0.394;2022-10-03T11:10:38;100126.38;;;22.84;100.00
17311;BME280;8773;43.300;0.394;2022-10-03T11:13:53;100127.19;;;23.06;100.00
17311;BME280;8773;43.300;0.394;2022-10-03T11:16:58;100116.59;;;22.83;100.00
17311;BME280;8773;43.300;0.394;2022-10-03T11:19:50;100112.09;;;23.05;100.00
17311;BME280;8773;43.300;0.394;2022-10-03T11:26:01;100110.25;;;23.26;100.00
17311;BME280;8773;43.300;0.394;2022-10-03T11:32:16;100110.13;;;23.46;100.00
17311;BME280;8773;43.300;0.394;2022-10-03T11:37:59;100095.16;;;23.25;100.00
17311;BME280;8773;43.300;0.394;2022-10-03T11:40:40;100096.94;;;23.26;100.00
17311;BME280;8773;43.300;0.394;2022-10-03T11:43:41;100081.97;;;23.01;100.00
17311;BME280;8773;43.300;0.394;2022-10-03T11:46:28;100084.53;;;23.20;100.00
17311;BME280;8773;43.300;0.394;2022-10-03T11:49:25;100084.50;;;23.32;100.00
17311;BME280;8773;43.300;0.394;2022-10-03T11:52:03;100078.19;;;23.49;100.00
17311;BME280;8773;43.300;0.394;2022-10-03T11:54:39;100079.72;;;23.83;100.00
17311;BME280;8773;43.300;0.394;2022-10-03T11:57:16;100080.47;;;23.99;100.00
17311;BME280;8773;43.300;0.394;2022-10-03T11:59:58;100064.16;;;24.33;100.00
17311;BME280;8773;43.300;0.394;2022-10-03T12:03:00;100076.84;;;24.10;100.00
17311;BME280;8773;43.300;0.394;2022-10-03T12:05:44;100071.56;;;24.00;100.00
17311;BME280;8773;43.300;0.394;2022-10-03T12:08:20;100069.44;;;24.38;100.00
17311;BME280;8773;43.300;0.394;2022-10-03T12:11:12;100055.91;;;24.59;100.00
17311;BME280;8773;43.300;0.394;2022-10-03T12:14:03;100059.31;;;24.74;100.00
17311;BME280;8773;43.300;0.394;2022-10-03T12:16:49;100052.44;;;24.51;100.00
17311;BME280;8773;43.300;0.394;2022-10-03T12:19:27;100049.75;;;24.49;100.00
17311;BME280;8773;43.300;0.394;2022-10-03T12:22:09;100050.56;;;24.59;100.00
17311;BME280;8773;43.300;0.394;2022-10-03T12:24:40;100038.03;;;24.67;100.00
17311;BME280;8773;43.300;0.394;2022-10-03T12:27:16;100040.50;;;24.83;100.00
17311;BME280;8773;43.300;0.394;2022-10-03T12:29:54;100050.50;;;24.65;100.00
17311;BME280;8773;43.300;0.394;2022-10-03T12:32:37;100040.53;;;24.81;100.00
17311;BME280;8773;43.300;0.394;2022-10-03T12:35:20;100031.72;;;24.73;100.00
17311;BME280;8773;43.300;0.394;2022-10-03T12:38:14;100031.47;;;24.93;100.00
17311;BME280;8773;43.300;0.394;2022-10-03T12:40:51;100038.19;;;24.50;100.00
17311;BME280;8773;43.300;0.394;2022-10-03T12:43:35;100030.28;;;24.43;100.00
17311;BME280;8773;43.300;0.394;2022-10-03T12:46:13;100026.75;;;24.41;100.00
17311;BME280;8773;43.300;0.394;2022-10-03T12:48:46;100026.28;;;24.81;100.00
17311;BME280;8773;43.300;0.394;2022-10-03T12:51:29;100025.25;;;24.94;100.00
17311;BME280;8773;43.300;0.394;2022-10-03T12:54:06;100020.63;;;25.05;100.00
17311;BME280;8773;43.300;0.394;2022-10-03T12:56:44;100015.97;;;25.20;100.00
17311;BME280;8773;43.300;0.394;2022-10-03T12:59:21;100011.78;;;25.03;100.00
17311;BME280;8773;43.300;0.394;2022-10-03T13:02:20;100006.34;;;25.09;100.00
17311;BME280;8773;43.300;0.394;2022-10-03T13:05:04;100000.41;;;24.87;100.00
17311;BME280;8773;43.300;0.394;2022-10-03T13:07:43;100002.25;;;24.82;100.00
17311;BME280;8773;43.300;0.394;2022-10-03T13:10:27;99997.13;;;24.67;100.00
17311;BME280;8773;43.300;0.394;2022-10-03T13:13:09;99997.44;;;24.39;100.00
17311;BME280;8773;43.300;0.394;2022-10-03T13:15:48;99992.94;;;24.44;100.00
17311;BME280;8773;43.300;0.394;2022-10-03T13:18:40;100001.59;;;24.65;100.00
17311;BME280;8773;43.300;0.394;2022-10-03T13:21:15;99993.44;;;24.77;100.00
17311;BME280;8773;43.300;0.394;2022-10-03T13:24:06;99989.25;;;24.55;100.00
17311;BME280;8773;43.300;0.394;2022-10-03T13:26:49;99986.25;;;24.82;100.00
17311;BME280;8773;43.300;0.394;2022-10-03T13:29:24;99982.50;;;24.97;100.00
17311;BME280;8773;43.300;0.394;2022-10-03T13:32:05;99985.25;;;24.91;100.00
17311;BME280;8773;43.300;0.394;2022-10-03T13:37:28;99982.06;;;25.28;100.00
17311;BME280;8773;43.300;0.394;2022-10-03T13:40:05;99976.97;;;25.11;100.00
17311;BME280;8773;43.300;0.394;2022-10-03T13:42:39;99962.59;;;25.18;100.00
17311;BME280;8773;43.300;0.394;2022-10-03T13:45:13;99967.75;;;25.32;100.00
17311;BME280;8773;43.300;0.394;2022-10-03T13:47:44;99962.53;;;25.26;100.00
17311;BME280;8773;43.300;0.394;2022-10-03T13:50:16;99970.50;;;25.27;100.00
17311;BME280;8773;43.300;0.394;2022-10-03T13:52:49;99964.50;;;25.11;100.00
17311;BME280;8773;43.300;0.394;2022-10-03T13:55:28;99966.75;;;24.79;100.00
17311;BME280;8773;43.300;0.394;2022-10-03T13:58:17;99959.84;;;24.62;100.00
17311;BME280;8773;43.300;0.394;2022-10-03T14:03:46;99950.75;;;24.76;100.00
17311;BME280;8773;43.300;0.394;2022-10-03T14:06:25;99960.44;;;24.83;100.00
17311;BME280;8773;43.300;0.394;2022-10-03T14:09:19;99955.16;;;24.78;100.00
17311;BME280;8773;43.300;0.394;2022-10-03T14:11:56;99943.72;;;24.70;100.00
17311;BME280;8773;43.300;0.394;2022-10-03T14:14:51;99946.94;;;24.28;100.00
17311;BME280;8773;43.300;0.394;2022-10-03T14:17:29;99949.75;;;24.13;100.00
17311;BME280;8773;43.300;0.394;2022-10-03T14:20:13;99947.00;;;24.21;100.00
17311;BME280;8773;43.300;0.394;2022-10-03T14:22:53;99944.38;;;24.19;100.00
17311;BME280;8773;43.300;0.394;2022-10-03T14:25:27;99941.69;;;24.18;100.00
17311;BME280;8773;43.300;0.394;2022-10-03T14:28:01;99940.81;;;24.19;100.00
17311;BME280;8773;43.300;0.394;2022-10-03T14:30:45;99935.44;;;24.20;100.00
17311;BME280;8773;43.300;0.394;2022-10-03T14:33:37;99941.00;;;24.02;100.00
17311;BME280;8773;43.300;0.394;2022-10-03T14:36:20;99937.34;;;24.12;100.00
17311;BME280;8773;43.300;0.394;2022-10-03T14:39:02;99933.91;;;24.01;100.00
17311;BME280;8773;43.300;0.394;2022-10-03T14:41:42;99933.91;;;24.01;97.63
17311;BME280;8773;43.300;0.394;2022-10-03T14:44:15;99932.91;;;24.10;100.00
17311;BME280;8773;43.300;0.394;2022-10-03T14:46:49;99931.09;;;24.15;98.23
17311;BME280;8773;43.300;0.394;2022-10-03T14:49:23;99932.38;;;23.77;99.57
17311;BME280;8773;43.300;0.394;2022-10-03T14:52:22;99931.22;;;24.04;100.00
17311;BME280;8773;43.300;0.394;2022-10-03T14:54:53;99925.84;;;24.08;96.99
17311;BME280;8773;43.300;0.394;2022-10-03T14:57:30;99923.75;;;24.32;94.52
17311;BME280;8773;43.300;0.394;2022-10-03T15:00:33;99924.97;;;24.05;93.71
17311;BME280;8773;43.300;0.394;2022-10-03T15:03:28;99921.38;;;24.09;92.83
17311;BME280;8773;43.300;0.394;2022-10-03T15:06:03;99927.44;;;24.23;90.79
17311;BME280;8773;43.300;0.394;2022-10-03T15:08:46;99925.41;;;24.44;91.65
17311;BME280;8773;43.300;0.394;2022-10-03T15:11:21;99918.03;;;24.64;93.04
17311;BME280;8773;43.300;0.394;2022-10-03T15:13:54;99924.06;;;24.79;94.38
17311;BME280;8773;43.300;0.394;2022-10-03T15:16:24;99914.22;;;24.84;92.40
17311;BME280;8773;43.300;0.394;2022-10-03T15:18:56;99922.16;;;24.88;90.05
17311;BME280;8773;43.300;0.394;2022-10-03T15:21:33;99921.47;;;24.74;89.23
17311;BME280;8773;43.300;0.394;2022-10-03T15:24:04;99919.53;;;24.84;92.24
17311;BME280;8773;43.300;0.394;2022-10-03T15:26:35;99916.72;;;24.93;87.78
17311;BME280;8773;43.300;0.394;2022-10-03T15:29:05;99917.38;;;25.07;86.91
17311;BME280;8773;43.300;0.394;2022-10-03T15:31:36;99906.53;;;25.18;85.06
17311;BME280;8773;43.300;0.394;2022-10-03T15:34:15;99911.88;;;25.18;84.45
17311;BME280;8773;43.300;0.394;2022-10-03T15:36:47;99905.72;;;25.13;84.77
17311;BME280;8773;43.300;0.394;2022-10-03T15:39:19;99912.19;;;24.98;83.35
17311;BME280;8773;43.300;0.394;2022-10-03T15:41:51;99906.97;;;24.92;82.34
17311;BME280;8773;43.300;0.394;2022-10-03T15:44:24;99909.19;;;25.20;83.14
17311;BME280;8773;43.300;0.394;2022-10-03T15:47:05;99911.22;;;25.04;83.84
17311;BME280;8773;43.300;0.394;2022-10-03T15:49:38;99915.47;;;25.15;84.51
17311;BME280;8773;43.300;0.394;2022-10-03T15:52:13;99920.13;;;25.04;86.95
17311;BME280;8773;43.300;0.394;2022-10-03T15:54:45;99909.81;;;24.81;86.16
17311;BME280;8773;43.300;0.394;2022-10-03T15:57:18;99913.34;;;24.82;88.38
17311;BME280;8773;43.300;0.394;2022-10-03T15:59:51;99911.00;;;24.56;89.92
17311;BME280;8773;43.300;0.394;2022-10-03T16:02:33;99906.03;;;24.28;89.53
17311;BME280;8773;43.300;0.394;2022-10-03T16:05:06;99900.59;;;24.39;92.32
17311;BME280;8773;43.300;0.394;2022-10-03T16:07:45;99902.72;;;24.09;95.67
17311;BME280;8773;43.300;0.394;2022-10-03T16:10:18;99896.72;;;23.89;98.29
17311;BME280;8773;43.300;0.394;2022-10-03T16:13:01;99898.47;;;23.91;98.70
17311;BME280;8773;43.300;0.394;2022-10-03T16:15:42;99901.97;;;23.98;99.30
17311;BME280;8773;43.300;0.394;2022-10-03T16:21:28;99893.25;;;23.80;100.00
17311;BME280;8773;43.300;0.394;2022-10-03T16:23:58;99892.41;;;23.75;100.00
17311;BME280;8773;43.300;0.394;2022-10-03T16:26:32;99890.66;;;23.74;100.00
17311;BME280;8773;43.300;0.394;2022-10-03T16:29:07;99895.16;;;23.69;100.00
17311;BME280;8773;43.300;0.394;2022-10-03T16:31:41;99895.16;;;23.69;100.00
17311;BME280;8773;43.300;0.394;2022-10-03T16:34:13;99888.44;;;23.31;100.00
17311;BME280;8773;43.300;0.394;2022-10-03T16:36:45;99890.16;;;23.37;100.00
17311;BME280;8773;43.300;0.394;2022-10-03T16:39:18;99892.78;;;23.40;100.00
17311;BME280;8773;43.300;0.394;2022-10-03T16:41:50;99891.97;;;23.30;100.00
17311;BME280;8773;43.300;0.394;2022-10-03T16:44:23;99893.78;;;23.25;100.00
17311;BME280;8773;43.300;0.394;2022-10-03T16:46:54;99900.03;;;23.18;100.00
17311;BME280;8773;43.300;0.394;2022-10-03T16:49:38;99902.91;;;22.92;100.00
17311;BME280;8773;43.300;0.394;2022-10-03T16:52:30;99907.41;;;22.76;100.00
17311;BME280;8773;43.300;0.394;2022-10-03T16:55:03;99902.97;;;22.81;100.00
17311;BME280;8773;43.300;0.394;2022-10-03T16:57:42;99903.88;;;22.75;100.00
17311;BME280;8773;43.300;0.394;2022-10-03T17:00:15;99905.69;;;22.72;100.00
17311;BME280;8773;43.300;0.394;2022-10-03T17:02:44;99903.88;;;22.77;100.00
17311;BME280;8773;43.300;0.394;2022-10-03T17:05:15;99905.72;;;22.67;100.00
17311;BME280;8773;43.300;0.394;2022-10-03T17:07:47;99911.06;;;22.58;100.00
17311;BME280;8773;43.300;0.394;2022-10-03T17:10:32;99904.91;;;22.47;100.00
17311;BME280;8773;43.300;0.394;2022-10-03T17:13:04;99914.66;;;22.43;100.00